createdAt,value
2019-02-16T00:02:12.553Z,99.90
2019-02-16T00:04:44.210Z,99.90
2019-02-16T00:07:15.206Z,99.90
2019-02-16T00:09:48.841Z,99.90
2019-02-16T00:12:21.983Z,99.90
2019-02-16T00:14:53.992Z,99.90
2019-02-16T00:17:24.832Z,99.90
2019-02-16T00:19:58.190Z,99.90
2019-02-16T00:22:29.979Z,99.90
2019-02-16T00:25:01.641Z,99.90
2019-02-16T00:27:35.444Z,99.90
2019-02-16T00:30:08.305Z,99.90
2019-02-16T00:32:39.462Z,99.90
2019-02-16T00:35:10.298Z,99.90
2019-02-16T00:37:41.236Z,99.90
2019-02-16T00:40:12.276Z,99.90
2019-02-16T00:42:44.903Z,99.90
2019-02-16T00:45:15.893Z,99.90
2019-02-16T00:47:46.700Z,99.90
2019-02-16T00:50:18.137Z,99.90
2019-02-16T00:52:49.081Z,99.90
2019-02-16T00:55:19.921Z,99.90
2019-02-16T00:57:50.712Z,99.90
2019-02-16T01:00:22.628Z,99.90
2019-02-16T01:02:53.561Z,99.90
2019-02-16T01:05:25.611Z,99.90
2019-02-16T01:07:56.674Z,99.90
2019-02-16T01:10:28.675Z,99.90
2019-02-16T01:12:59.589Z,99.90
2019-02-16T01:15:30.528Z,99.90
2019-02-16T01:18:01.466Z,99.90
2019-02-16T01:20:33.341Z,99.90
2019-02-16T01:23:05.298Z,99.90
2019-02-16T01:25:36.123Z,99.90
2019-02-16T01:28:06.955Z,99.90
2019-02-16T01:30:39.130Z,99.90
2019-02-16T01:33:10.065Z,99.90
2019-02-16T01:35:41.003Z,99.90
2019-02-16T01:38:11.839Z,99.90
2019-02-16T01:40:42.882Z,99.90
2019-02-16T01:43:13.820Z,99.90
2019-02-16T01:45:44.750Z,99.90
2019-02-16T01:48:15.694Z,99.90
2019-02-16T01:50:46.629Z,99.90
2019-02-16T01:53:19.417Z,99.90
2019-02-16T01:55:50.341Z,99.90
2019-02-16T01:58:22.664Z,99.90
2019-02-16T02:00:53.656Z,99.90
2019-02-16T02:03:24.700Z,99.90
2019-02-16T02:05:55.663Z,99.90
2019-02-16T02:08:28.040Z,99.90
2019-02-16T02:10:58.948Z,99.90
2019-02-16T02:13:29.990Z,99.90
2019-02-16T02:16:00.822Z,99.90
2019-02-16T02:18:33.400Z,99.90
2019-02-16T02:21:04.236Z,99.90
2019-02-16T02:23:35.279Z,99.90
2019-02-16T02:26:06.199Z,99.90
2019-02-16T02:28:37.257Z,99.90
2019-02-16T02:31:08.195Z,99.90
2019-02-16T02:33:40.668Z,99.90
2019-02-16T02:36:11.709Z,99.90
2019-02-16T02:38:42.750Z,99.90
2019-02-16T02:41:13.688Z,99.90
2019-02-16T02:43:45.546Z,99.90
2019-02-16T02:46:16.588Z,99.90
2019-02-16T02:48:47.522Z,99.90
2019-02-16T02:51:18.459Z,99.90
2019-02-16T02:53:50.822Z,99.90
2019-02-16T02:56:21.769Z,99.90
2019-02-16T02:58:52.605Z,99.90
2019-02-16T03:01:23.542Z,99.90
2019-02-16T03:03:54.485Z,99.90
2019-02-16T03:06:25.418Z,99.90
2019-02-16T03:08:57.578Z,99.90
2019-02-16T03:11:28.432Z,99.90
2019-02-16T03:13:59.467Z,99.90
2019-02-16T03:16:30.394Z,99.90
2019-02-16T03:19:01.930Z,99.90
2019-02-16T03:21:32.893Z,99.90
2019-02-16T03:24:03.930Z,99.90
2019-02-16T03:26:43.784Z,99.90
2019-02-16T03:29:41.339Z,99.90
2019-02-16T03:32:39.415Z,99.90
2019-02-16T03:35:40.457Z,99.90
2019-02-16T03:38:14.264Z,99.90
2019-02-16T03:40:47.985Z,99.90
2019-02-16T03:43:18.902Z,99.90
2019-02-16T03:45:49.831Z,99.90
2019-02-16T03:48:20.779Z,99.90
2019-02-16T03:50:51.821Z,99.90
2019-02-16T03:53:22.865Z,99.90
2019-02-16T03:55:54.009Z,99.90
2019-02-16T03:58:25.046Z,99.90
2019-02-16T04:00:55.969Z,99.90
2019-02-16T04:03:26.922Z,99.90
2019-02-16T04:05:58.268Z,99.90
2019-02-16T04:08:29.416Z,99.90
2019-02-16T04:11:00.347Z,99.90
2019-02-16T04:13:31.287Z,99.90
2019-02-16T04:16:02.087Z,99.90
2019-02-16T04:18:33.053Z,99.90
2019-02-16T04:21:03.991Z,99.90
2019-02-16T04:23:35.324Z,99.90
2019-02-16T04:26:09.561Z,99.90
2019-02-16T04:28:40.492Z,99.90
2019-02-16T04:31:11.415Z,99.90
2019-02-16T04:33:42.677Z,99.90
2019-02-16T04:36:13.514Z,99.90
2019-02-16T04:38:44.451Z,99.90
2019-02-16T04:41:15.396Z,99.90
2019-02-16T04:43:46.326Z,99.90
2019-02-16T04:46:17.136Z,99.90
2019-02-16T04:48:48.346Z,99.90
2019-02-16T04:51:19.549Z,99.90
2019-02-16T04:53:50.383Z,99.90
2019-02-16T04:56:21.149Z,99.90
2019-02-16T04:58:53.899Z,99.90
2019-02-16T05:01:27.184Z,99.90
2019-02-16T05:03:58.133Z,99.90
2019-02-16T05:06:28.933Z,99.90
2019-02-16T05:08:59.985Z,99.90
2019-02-16T05:11:31.630Z,99.90
2019-02-16T05:14:02.469Z,99.90
2019-02-16T05:16:33.431Z,99.90
2019-02-16T05:19:04.165Z,99.90
2019-02-16T05:21:37.462Z,99.90
2019-02-16T05:24:10.146Z,99.90
2019-02-16T05:26:41.079Z,99.90
2019-02-16T05:29:11.909Z,99.90
2019-02-16T05:31:42.748Z,99.90
2019-02-16T05:34:13.687Z,99.90
2019-02-16T05:36:44.668Z,99.90
2019-02-16T05:39:15.676Z,99.90
2019-02-16T05:41:46.580Z,99.90
2019-02-16T05:44:17.540Z,99.90
2019-02-16T05:46:48.475Z,99.90
2019-02-16T05:49:19.416Z,99.90
2019-02-16T05:51:51.434Z,99.90
2019-02-16T05:54:22.313Z,99.90
2019-02-16T05:56:53.122Z,99.90
2019-02-16T05:59:24.062Z,99.90
2019-02-16T06:01:55.434Z,99.90
2019-02-16T06:04:26.245Z,99.90
2019-02-16T06:06:57.111Z,99.90
2019-02-16T06:09:27.940Z,99.90
2019-02-16T06:11:59.707Z,99.90
2019-02-16T06:14:30.509Z,99.90
2019-02-16T06:17:01.474Z,99.90
2019-02-16T06:19:32.310Z,99.90
2019-02-16T06:22:03.350Z,99.90
2019-02-16T06:24:34.494Z,99.90
2019-02-16T06:27:05.303Z,99.90
2019-02-16T06:29:36.266Z,99.90
2019-02-16T06:32:08.618Z,99.90
2019-02-16T06:34:40.494Z,99.90
2019-02-16T06:37:24.133Z,99.90
2019-02-16T06:39:54.969Z,99.90
2019-02-16T06:42:26.921Z,99.90
2019-02-16T06:44:58.889Z,99.90
2019-02-16T06:47:29.727Z,99.90
2019-02-16T06:50:00.635Z,99.90
2019-02-16T06:52:32.936Z,99.90
2019-02-16T06:55:04.078Z,99.90
2019-02-16T06:57:35.016Z,99.90
2019-02-16T07:00:08.926Z,99.90
2019-02-16T07:02:41.208Z,99.90
2019-02-16T07:05:12.110Z,99.90
2019-02-16T07:07:42.966Z,99.90
2019-02-16T07:10:13.902Z,99.90
2019-02-16T07:12:46.037Z,99.90
2019-02-16T07:15:16.907Z,99.90
2019-02-16T07:17:49.379Z,99.90
2019-02-16T07:20:21.030Z,99.90
2019-02-16T07:22:54.313Z,99.90
2019-02-16T07:25:26.278Z,99.90
2019-02-16T07:27:57.126Z,99.90
2019-02-16T07:30:27.956Z,99.90
2019-02-16T07:33:00.107Z,99.90
2019-02-16T07:35:31.065Z,99.90
2019-02-16T07:38:02.005Z,99.90
2019-02-16T07:40:32.838Z,99.90
2019-02-16T07:43:04.083Z,99.90
2019-02-16T07:45:36.557Z,99.90
2019-02-16T07:48:11.998Z,99.90
2019-02-16T07:50:44.474Z,99.90
2019-02-16T07:53:19.812Z,99.90
2019-02-16T07:55:55.021Z,99.90
2019-02-16T07:58:30.496Z,99.90
2019-02-16T08:01:02.970Z,99.90
2019-02-16T08:03:35.444Z,99.90
2019-02-16T08:06:19.898Z,99.90
2019-02-16T08:08:58.211Z,99.90
2019-02-16T08:11:33.754Z,99.30
2019-02-16T08:14:06.209Z,93.10
2019-02-16T08:16:38.769Z,90.40
2019-02-16T08:19:14.354Z,75.60
2019-02-16T08:21:50.615Z,76.60
2019-02-16T08:24:39.375Z,81.20
2019-02-16T08:27:28.333Z,73.90
2019-02-16T08:30:09.921Z,75.10
2019-02-16T08:32:48.230Z,64.70
2019-02-16T08:35:29.712Z,66.00
2019-02-16T08:38:20.209Z,63.20
2019-02-16T08:41:04.533Z,68.70
2019-02-16T08:43:53.324Z,65.30
2019-02-16T08:46:25.797Z,70.60
2019-02-16T08:48:58.266Z,68.20
2019-02-16T08:51:34.020Z,66.20
2019-02-16T08:54:09.364Z,65.80
2019-02-16T08:56:41.905Z,66.50
2019-02-16T08:59:23.627Z,61.70
2019-02-16T09:01:59.278Z,63.60
2019-02-16T09:04:47.098Z,62.50
2019-02-16T09:07:35.968Z,59.10
2019-02-16T09:10:09.989Z,56.60
2019-02-16T09:12:54.841Z,56.80
2019-02-16T09:15:30.490Z,54.70
2019-02-16T09:18:06.111Z,56.30
2019-02-16T09:20:41.351Z,52.20
2019-02-16T09:23:30.848Z,51.90
2019-02-16T09:26:09.364Z,51.40
2019-02-16T09:28:57.811Z,50.00
2019-02-16T09:31:48.410Z,52.20
2019-02-16T09:34:23.623Z,51.30
2019-02-16T09:37:03.276Z,48.70
2019-02-16T09:39:37.305Z,48.30
2019-02-16T09:42:10.189Z,51.00
2019-02-16T09:44:59.360Z,49.60
2019-02-16T09:47:35.625Z,46.10
2019-02-16T09:50:18.131Z,49.10
2019-02-16T09:53:07.934Z,48.80
2019-02-16T09:55:41.201Z,48.30
2019-02-16T09:58:19.919Z,49.00
2019-02-16T10:01:01.477Z,50.40
2019-02-16T10:03:46.552Z,49.00
2019-02-16T10:06:37.528Z,44.30
2019-02-16T10:09:13.678Z,43.00
2019-02-16T10:11:49.597Z,44.00
2019-02-16T10:14:22.351Z,41.30
2019-02-16T10:17:01.102Z,41.90
2019-02-16T10:19:51.054Z,44.70
2019-02-16T10:22:40.457Z,41.60
2019-02-16T10:25:16.094Z,38.80
2019-02-16T10:27:48.752Z,38.50
2019-02-16T10:30:21.778Z,39.20
2019-02-16T10:33:13.057Z,41.80
2019-02-16T10:35:45.759Z,38.60
2019-02-16T10:38:28.178Z,40.10
2019-02-16T10:41:20.719Z,37.70
2019-02-16T10:43:56.362Z,37.50
2019-02-16T10:46:48.987Z,39.40
2019-02-16T10:49:22.251Z,38.80
2019-02-16T10:51:54.963Z,39.90
2019-02-16T10:54:39.213Z,41.90
2019-02-16T10:57:18.706Z,41.50
2019-02-16T10:59:51.690Z,36.60
2019-02-16T11:02:26.598Z,36.10
2019-02-16T11:05:02.523Z,38.10
2019-02-16T11:07:41.780Z,36.80
2019-02-16T11:10:20.501Z,38.70
2019-02-16T11:13:10.081Z,34.00
2019-02-16T11:15:47.046Z,34.90
2019-02-16T11:18:36.429Z,37.40
2019-02-16T11:21:12.078Z,35.90
2019-02-16T11:23:57.216Z,36.70
2019-02-16T11:26:33.714Z,35.60
2019-02-16T11:29:27.905Z,35.10
2019-02-16T11:32:09.799Z,37.00
2019-02-16T11:34:47.078Z,36.00
2019-02-16T11:37:20.576Z,35.70
2019-02-16T11:39:56.908Z,34.60
2019-02-16T11:42:45.692Z,35.80
2019-02-16T11:45:23.843Z,35.90
2019-02-16T11:48:00.765Z,32.10
2019-02-16T11:50:39.099Z,32.90
2019-02-16T11:53:21.101Z,35.30
2019-02-16T11:56:04.462Z,33.10
2019-02-16T11:58:37.515Z,32.90
2019-02-16T12:01:14.743Z,32.70
2019-02-16T12:03:50.893Z,35.60
2019-02-16T12:06:30.579Z,33.60
2019-02-16T12:09:12.677Z,35.30
2019-02-16T12:11:49.166Z,34.70
2019-02-16T12:14:38.510Z,33.80
2019-02-16T12:17:29.035Z,34.00
2019-02-16T12:20:14.412Z,33.30
2019-02-16T12:22:56.082Z,33.60
2019-02-16T12:25:45.070Z,34.30
2019-02-16T12:28:23.996Z,34.00
2019-02-16T12:30:58.603Z,33.10
2019-02-16T12:33:38.725Z,33.80
2019-02-16T12:36:23.737Z,33.10
2019-02-16T12:39:04.623Z,35.60
2019-02-16T12:41:39.130Z,34.30
2019-02-16T12:44:11.619Z,35.30
2019-02-16T12:47:04.766Z,33.50
2019-02-16T12:49:45.949Z,33.80
2019-02-16T12:52:36.848Z,34.60
2019-02-16T12:55:26.394Z,34.40
2019-02-16T12:57:59.306Z,34.20
2019-02-16T13:00:34.341Z,34.50
2019-02-16T13:03:09.889Z,35.40
2019-02-16T13:05:42.464Z,34.00
2019-02-16T13:08:14.949Z,33.40
2019-02-16T13:10:47.413Z,35.50
2019-02-16T13:13:22.723Z,34.20
2019-02-16T13:15:57.889Z,34.10
2019-02-16T13:18:33.331Z,33.50
2019-02-16T13:21:05.805Z,36.50
2019-02-16T13:23:39.715Z,36.20
2019-02-16T13:26:12.189Z,37.80
2019-02-16T13:28:47.311Z,36.00
2019-02-16T13:31:31.779Z,36.40
2019-02-16T13:34:20.741Z,39.30
2019-02-16T13:36:59.125Z,37.60
2019-02-16T13:39:37.776Z,38.40
2019-02-16T13:42:19.141Z,37.60
2019-02-16T13:45:00.852Z,38.00
2019-02-16T13:47:33.323Z,37.50
2019-02-16T13:50:09.792Z,39.20
2019-02-16T13:52:44.087Z,39.70
2019-02-16T13:55:33.295Z,39.60
2019-02-16T13:58:15.166Z,38.40
2019-02-16T14:00:47.742Z,39.70
2019-02-16T14:03:23.289Z,41.00
2019-02-16T14:06:12.024Z,40.50
2019-02-16T14:08:56.500Z,39.50
2019-02-16T14:11:28.979Z,37.60
2019-02-16T14:14:13.532Z,38.10
2019-02-16T14:16:49.372Z,38.90
2019-02-16T14:19:20.327Z,40.70
2019-02-16T14:21:51.245Z,42.80
2019-02-16T14:24:23.842Z,42.40
2019-02-16T14:26:54.784Z,42.00
2019-02-16T14:29:25.737Z,41.50
2019-02-16T14:31:59.908Z,39.80
2019-02-16T14:34:30.771Z,42.80
2019-02-16T14:37:03.240Z,41.30
2019-02-16T14:39:34.867Z,43.00
2019-02-16T14:42:06.945Z,43.70
2019-02-16T14:44:37.797Z,44.30
2019-02-16T14:47:08.810Z,43.10
2019-02-16T14:49:39.852Z,43.50
2019-02-16T14:52:12.355Z,43.30
2019-02-16T14:54:43.291Z,44.30
2019-02-16T14:57:14.235Z,44.70
2019-02-16T14:59:45.174Z,42.40
2019-02-16T15:02:17.542Z,44.70
2019-02-16T15:04:48.587Z,43.30
2019-02-16T15:07:19.525Z,44.00
2019-02-16T15:09:50.459Z,45.00
2019-02-16T15:12:22.830Z,42.70
2019-02-16T15:14:53.774Z,44.90
2019-02-16T15:17:24.603Z,46.30
2019-02-16T15:19:55.542Z,47.20
2019-02-16T15:22:27.606Z,50.10
2019-02-16T15:24:58.519Z,53.30
2019-02-16T15:27:29.559Z,55.90
2019-02-16T15:30:00.391Z,55.60
2019-02-16T15:32:31.364Z,55.70
2019-02-16T15:35:02.193Z,63.00
2019-02-16T15:37:33.234Z,63.60
2019-02-16T15:40:04.661Z,64.70
2019-02-16T15:42:36.548Z,69.10
2019-02-16T15:45:12.607Z,72.10
2019-02-16T15:47:43.546Z,70.50
2019-02-16T15:50:15.688Z,84.20
2019-02-16T15:52:47.165Z,90.40
2019-02-16T15:55:18.819Z,92.80
2019-02-16T15:57:49.960Z,92.20
2019-02-16T16:00:22.412Z,94.30
2019-02-16T16:02:53.586Z,93.50
2019-02-16T16:05:24.519Z,89.60
2019-02-16T16:08:13.681Z,93.20
2019-02-16T16:10:55.372Z,92.30
2019-02-16T16:13:30.813Z,92.80
2019-02-16T16:16:21.516Z,92.80
2019-02-16T16:19:07.564Z,95.40
2019-02-16T16:21:42.636Z,95.00
2019-02-16T16:24:24.305Z,96.30
2019-02-16T16:27:05.818Z,99.70
2019-02-16T16:29:44.336Z,99.90
2019-02-16T16:32:25.279Z,99.90
2019-02-16T16:35:03.417Z,99.90
2019-02-16T16:37:40.369Z,99.90
2019-02-16T16:40:17.169Z,99.90
2019-02-16T16:42:49.647Z,99.90
2019-02-16T16:45:38.096Z,99.90
2019-02-16T16:48:10.569Z,99.90
2019-02-16T16:50:58.302Z,99.90
2019-02-16T16:53:47.263Z,99.90
2019-02-16T16:56:29.200Z,99.90
2019-02-16T16:59:04.687Z,99.90
2019-02-16T17:01:39.617Z,99.90
2019-02-16T17:04:28.390Z,99.90
2019-02-16T17:07:09.976Z,99.90
2019-02-16T17:09:58.810Z,99.90
2019-02-16T17:12:41.346Z,99.90
2019-02-16T17:15:20.272Z,99.90
2019-02-16T17:17:53.158Z,99.90
2019-02-16T17:20:34.692Z,99.90
2019-02-16T17:23:07.354Z,99.90
2019-02-16T17:25:43.236Z,99.90
2019-02-16T17:28:28.449Z,99.90
2019-02-16T17:31:07.682Z,99.90
2019-02-16T17:33:40.462Z,99.90
2019-02-16T17:36:13.502Z,99.90
2019-02-16T17:38:46.273Z,99.90
2019-02-16T17:41:28.604Z,99.90
2019-02-16T17:44:05.020Z,99.90
2019-02-16T17:46:44.475Z,99.90
2019-02-16T17:49:26.236Z,99.90
2019-02-16T17:52:01.803Z,99.90
2019-02-16T17:54:37.618Z,99.90
2019-02-16T17:57:13.687Z,99.90
2019-02-16T17:59:52.019Z,99.90
2019-02-16T18:02:27.346Z,99.90
2019-02-16T18:05:06.201Z,99.90
2019-02-16T18:07:45.816Z,99.90
2019-02-16T18:10:18.660Z,99.90
2019-02-16T18:12:51.616Z,99.90
2019-02-16T18:15:30.954Z,99.90
2019-02-16T18:18:13.337Z,99.90
2019-02-16T18:20:49.386Z,99.90
2019-02-16T18:23:29.221Z,99.90
2019-02-16T18:26:05.560Z,99.90
2019-02-16T18:28:44.969Z,99.90
2019-02-16T18:31:33.263Z,99.90
2019-02-16T18:34:15.163Z,99.90
2019-02-16T18:36:48.254Z,99.90
2019-02-16T18:39:21.952Z,99.90
2019-02-16T18:42:09.481Z,99.90
2019-02-16T18:44:41.922Z,99.90
2019-02-16T18:47:23.850Z,99.90
2019-02-16T18:50:12.899Z,99.90
2019-02-16T18:52:45.388Z,99.90
2019-02-16T18:55:18.287Z,99.90
2019-02-16T18:57:51.652Z,99.90
2019-02-16T19:00:30.058Z,99.90
2019-02-16T19:03:05.331Z,99.90
2019-02-16T19:05:40.661Z,99.90
2019-02-16T19:08:25.423Z,99.90
2019-02-16T19:11:15.506Z,99.90
2019-02-16T19:13:48.786Z,99.90
2019-02-16T19:16:31.104Z,99.90
2019-02-16T19:19:14.232Z,99.90
2019-02-16T19:21:54.791Z,99.90
2019-02-16T19:24:44.710Z,99.90
2019-02-16T19:27:24.600Z,99.90
2019-02-16T19:29:58.960Z,99.90
2019-02-16T19:32:47.495Z,99.90
2019-02-16T19:35:20.843Z,99.90
2019-02-16T19:37:57.870Z,99.90
2019-02-16T19:40:34.593Z,99.90
2019-02-16T19:43:14.278Z,99.90
2019-02-16T19:45:54.104Z,99.90
2019-02-16T19:48:37.595Z,99.90
2019-02-16T19:51:14.107Z,99.90
2019-02-16T19:53:57.863Z,99.90
2019-02-16T19:56:31.700Z,99.90
2019-02-16T19:59:22.175Z,99.90
2019-02-16T20:02:05.372Z,99.90
2019-02-16T20:04:50.106Z,99.90
2019-02-16T20:07:38.850Z,99.90
2019-02-16T20:10:15.220Z,99.90
2019-02-16T20:12:52.261Z,99.90
2019-02-16T20:15:44.298Z,99.90
2019-02-16T20:18:19.485Z,99.90
2019-02-16T20:21:09.621Z,99.90
2019-02-16T20:24:02.466Z,99.90
2019-02-16T20:26:53.377Z,99.90
2019-02-16T20:29:36.512Z,99.90
2019-02-16T20:32:15.701Z,99.90
2019-02-16T20:34:55.382Z,99.90
2019-02-16T20:37:32.790Z,99.90
2019-02-16T20:40:12.388Z,99.90
2019-02-16T20:42:52.287Z,99.90
2019-02-16T20:45:26.885Z,99.90
2019-02-16T20:48:11.345Z,99.90
2019-02-16T20:50:46.058Z,99.90
2019-02-16T20:53:19.676Z,99.90
2019-02-16T20:56:14.223Z,99.90
2019-02-16T20:58:59.530Z,99.90
2019-02-16T21:01:38.255Z,99.90
2019-02-16T21:04:11.989Z,99.90
2019-02-16T21:07:04.223Z,99.90
2019-02-16T21:09:41.765Z,99.90
2019-02-16T21:12:25.236Z,99.90
2019-02-16T21:15:01.891Z,99.90
2019-02-16T21:17:39.954Z,99.90
2019-02-16T21:20:14.931Z,99.90
2019-02-16T21:22:50.271Z,99.90
2019-02-16T21:25:41.384Z,99.90
2019-02-16T21:28:18.554Z,99.90
2019-02-16T21:30:54.421Z,99.90
2019-02-16T21:33:32.926Z,99.90
2019-02-16T21:36:22.197Z,99.90
2019-02-16T21:39:11.884Z,99.90
2019-02-16T21:41:49.873Z,99.90
2019-02-16T21:44:29.044Z,99.90
2019-02-16T21:47:08.060Z,99.90
2019-02-16T21:49:46.422Z,99.90
2019-02-16T21:52:37.200Z,99.90
2019-02-16T21:55:26.727Z,99.90
2019-02-16T21:58:08.039Z,99.90
2019-02-16T22:00:39.767Z,99.90
2019-02-16T22:03:16.025Z,99.90
2019-02-16T22:06:06.112Z,99.90
2019-02-16T22:08:39.509Z,99.90
2019-02-16T22:11:25.604Z,99.90
2019-02-16T22:13:57.441Z,99.90
2019-02-16T22:16:28.763Z,99.90
2019-02-16T22:19:00.354Z,99.90
2019-02-16T22:21:32.041Z,99.90
2019-02-16T22:24:05.358Z,99.90
2019-02-16T22:26:36.719Z,99.90
2019-02-16T22:29:09.008Z,99.90
2019-02-16T22:31:40.038Z,99.90
2019-02-16T22:34:11.467Z,99.90
2019-02-16T22:36:43.786Z,99.90
2019-02-16T22:39:15.444Z,99.90
2019-02-16T22:41:46.995Z,99.90
2019-02-16T22:44:18.452Z,99.90
2019-02-16T22:46:50.086Z,99.90
2019-02-16T22:49:22.878Z,99.90
2019-02-16T22:51:55.733Z,99.90
2019-02-16T22:54:27.140Z,99.90
2019-02-16T22:56:59.598Z,99.90
2019-02-16T22:59:33.083Z,99.90
2019-02-16T23:02:05.125Z,99.90
2019-02-16T23:04:36.185Z,99.90
2019-02-16T23:07:07.943Z,99.90
2019-02-16T23:09:39.949Z,99.90
2019-02-16T23:12:11.701Z,99.90
2019-02-16T23:14:44.495Z,99.90
2019-02-16T23:17:16.067Z,99.90
2019-02-16T23:19:47.818Z,99.90
2019-02-16T23:22:19.778Z,99.90
2019-02-16T23:24:51.475Z,99.90
2019-02-16T23:27:22.311Z,99.90
2019-02-16T23:29:53.453Z,99.90
2019-02-16T23:32:24.392Z,99.90
2019-02-16T23:34:55.533Z,99.90
2019-02-16T23:37:26.468Z,99.90
2019-02-16T23:39:57.410Z,99.90
2019-02-16T23:42:28.318Z,99.90
2019-02-16T23:44:59.180Z,99.90
2019-02-16T23:47:30.016Z,99.90
2019-02-16T23:50:01.057Z,99.90
2019-02-16T23:52:31.892Z,99.90
2019-02-16T23:55:02.829Z,99.90
2019-02-16T23:57:33.752Z,99.90
